sensor_id;sensor_type;location;lat;lon;timestamp;P1;durP1;ratioP1;P2;durP2;ratioP2
40284;SDS011;25997;50.214;19.354;2024-03-08T00:01:48;35.53;;;22.60;;
40284;SDS011;25997;50.214;19.354;2024-03-08T00:04:50;36.05;;;22.42;;
40284;SDS011;25997;50.214;19.354;2024-03-08T00:07:52;26.40;;;20.25;;
40284;SDS011;25997;50.214;19.354;2024-03-08T00:10:56;24.00;;;18.73;;
40284;SDS011;25997;50.214;19.354;2024-03-08T00:13:59;25.05;;;19.20;;
40284;SDS011;25997;50.214;19.354;2024-03-08T00:17:02;24.90;;;19.45;;
40284;SDS011;25997;50.214;19.354;2024-03-08T00:20:05;24.35;;;17.60;;
40284;SDS011;25997;50.214;19.354;2024-03-08T00:23:09;24.17;;;17.60;;
40284;SDS011;25997;50.214;19.354;2024-03-08T00:26:13;24.67;;;18.23;;
40284;SDS011;25997;50.214;19.354;2024-03-08T00:29:16;25.42;;;18.52;;
40284;SDS011;25997;50.214;19.354;2024-03-08T00:32:18;24.10;;;17.45;;
40284;SDS011;25997;50.214;19.354;2024-03-08T00:35:20;23.63;;;18.33;;
40284;SDS011;25997;50.214;19.354;2024-03-08T00:38:23;38.10;;;24.90;;
40284;SDS011;25997;50.214;19.354;2024-03-08T00:41:27;53.97;;;39.17;;
40284;SDS011;25997;50.214;19.354;2024-03-08T00:44:30;65.28;;;46.22;;
40284;SDS011;25997;50.214;19.354;2024-03-08T00:47:32;61.67;;;43.60;;
40284;SDS011;25997;50.214;19.354;2024-03-08T00:50:34;54.20;;;36.63;;
40284;SDS011;25997;50.214;19.354;2024-03-08T00:53:37;41.50;;;29.80;;
40284;SDS011;25997;50.214;19.354;2024-03-08T00:56:41;37.35;;;25.67;;
40284;SDS011;25997;50.214;19.354;2024-03-08T00:59:43;28.77;;;20.48;;
40284;SDS011;25997;50.214;19.354;2024-03-08T01:02:45;27.30;;;20.67;;
40284;SDS011;25997;50.214;19.354;2024-03-08T01:05:48;23.45;;;19.45;;
40284;SDS011;25997;50.214;19.354;2024-03-08T01:08:50;24.20;;;18.80;;
40284;SDS011;25997;50.214;19.354;2024-03-08T01:11:55;24.27;;;19.15;;
40284;SDS011;25997;50.214;19.354;2024-03-08T01:14:57;24.90;;;19.52;;
40284;SDS011;25997;50.214;19.354;2024-03-08T01:18:00;26.13;;;19.63;;
40284;SDS011;25997;50.214;19.354;2024-03-08T01:21:02;28.42;;;20.25;;
40284;SDS011;25997;50.214;19.354;2024-03-08T01:24:05;27.00;;;19.88;;
40284;SDS011;25997;50.214;19.354;2024-03-08T01:27:08;25.00;;;18.92;;
40284;SDS011;25997;50.214;19.354;2024-03-08T01:30:12;24.20;;;17.45;;
40284;SDS011;25997;50.214;19.354;2024-03-08T01:33:17;27.02;;;17.52;;
40284;SDS011;25997;50.214;19.354;2024-03-08T01:36:23;27.13;;;17.77;;
40284;SDS011;25997;50.214;19.354;2024-03-08T01:39:25;23.60;;;17.15;;
40284;SDS011;25997;50.214;19.354;2024-03-08T01:42:29;27.38;;;19.73;;
40284;SDS011;25997;50.214;19.354;2024-03-08T01:45:31;26.92;;;21.65;;
40284;SDS011;25997;50.214;19.354;2024-03-08T01:48:35;25.83;;;21.15;;
40284;SDS011;25997;50.214;19.354;2024-03-08T01:51:38;29.23;;;21.45;;
40284;SDS011;25997;50.214;19.354;2024-03-08T01:54:42;27.92;;;20.52;;
40284;SDS011;25997;50.214;19.354;2024-03-08T01:57:46;25.65;;;21.02;;
40284;SDS011;25997;50.214;19.354;2024-03-08T02:00:48;33.03;;;21.90;;
40284;SDS011;25997;50.214;19.354;2024-03-08T02:03:51;28.15;;;20.27;;
40284;SDS011;25997;50.214;19.354;2024-03-08T02:06:53;26.02;;;19.70;;
40284;SDS011;25997;50.214;19.354;2024-03-08T02:09:55;31.23;;;19.00;;
40284;SDS011;25997;50.214;19.354;2024-03-08T02:12:59;26.60;;;19.58;;
40284;SDS011;25997;50.214;19.354;2024-03-08T02:16:04;23.13;;;17.80;;
40284;SDS011;25997;50.214;19.354;2024-03-08T02:19:08;26.00;;;19.45;;
40284;SDS011;25997;50.214;19.354;2024-03-08T02:22:12;27.38;;;19.15;;
40284;SDS011;25997;50.214;19.354;2024-03-08T02:25:14;25.23;;;18.17;;
40284;SDS011;25997;50.214;19.354;2024-03-08T02:28:17;24.17;;;18.50;;
40284;SDS011;25997;50.214;19.354;2024-03-08T02:31:19;22.15;;;17.33;;
40284;SDS011;25997;50.214;19.354;2024-03-08T02:34:22;23.45;;;18.60;;
40284;SDS011;25997;50.214;19.354;2024-03-08T02:37:26;24.58;;;18.10;;
40284;SDS011;25997;50.214;19.354;2024-03-08T02:40:28;24.23;;;16.38;;
40284;SDS011;25997;50.214;19.354;2024-03-08T02:43:31;22.73;;;16.77;;
40284;SDS011;25997;50.214;19.354;2024-03-08T02:46:34;22.63;;;18.00;;
40284;SDS011;25997;50.214;19.354;2024-03-08T02:49:37;26.13;;;19.67;;
40284;SDS011;25997;50.214;19.354;2024-03-08T02:52:40;26.40;;;19.73;;
40284;SDS011;25997;50.214;19.354;2024-03-08T02:55:43;24.48;;;18.00;;
40284;SDS011;25997;50.214;19.354;2024-03-08T02:58:46;21.83;;;17.20;;
40284;SDS011;25997;50.214;19.354;2024-03-08T03:01:49;20.48;;;17.05;;
40284;SDS011;25997;50.214;19.354;2024-03-08T03:04:51;21.70;;;16.67;;
40284;SDS011;25997;50.214;19.354;2024-03-08T03:07:55;21.88;;;17.30;;
40284;SDS011;25997;50.214;19.354;2024-03-08T03:10:58;23.80;;;17.52;;
40284;SDS011;25997;50.214;19.354;2024-03-08T03:14:01;18.83;;;16.13;;
40284;SDS011;25997;50.214;19.354;2024-03-08T03:17:03;21.35;;;16.80;;
40284;SDS011;25997;50.214;19.354;2024-03-08T03:20:06;21.00;;;16.20;;
40284;SDS011;25997;50.214;19.354;2024-03-08T03:23:14;20.67;;;15.23;;
40284;SDS011;25997;50.214;19.354;2024-03-08T03:26:21;20.15;;;15.18;;
40284;SDS011;25997;50.214;19.354;2024-03-08T03:29:23;20.60;;;16.42;;
40284;SDS011;25997;50.214;19.354;2024-03-08T03:32:26;20.65;;;16.38;;
40284;SDS011;25997;50.214;19.354;2024-03-08T03:35:29;20.83;;;16.38;;
40284;SDS011;25997;50.214;19.354;2024-03-08T03:38:33;17.25;;;15.30;;
40284;SDS011;25997;50.214;19.354;2024-03-08T03:41:35;22.33;;;17.48;;
40284;SDS011;25997;50.214;19.354;2024-03-08T03:44:37;19.98;;;17.75;;
40284;SDS011;25997;50.214;19.354;2024-03-08T03:47:40;22.80;;;18.25;;
40284;SDS011;25997;50.214;19.354;2024-03-08T03:50:44;25.90;;;19.92;;
40284;SDS011;25997;50.214;19.354;2024-03-08T03:53:48;27.30;;;21.83;;
40284;SDS011;25997;50.214;19.354;2024-03-08T03:56:50;27.98;;;20.05;;
40284;SDS011;25997;50.214;19.354;2024-03-08T03:59:53;28.52;;;20.25;;
40284;SDS011;25997;50.214;19.354;2024-03-08T04:02:56;20.95;;;18.65;;
40284;SDS011;25997;50.214;19.354;2024-03-08T04:06:01;21.60;;;17.80;;
40284;SDS011;25997;50.214;19.354;2024-03-08T04:09:05;21.73;;;18.55;;
40284;SDS011;25997;50.214;19.354;2024-03-08T04:12:07;23.98;;;19.90;;
40284;SDS011;25997;50.214;19.354;2024-03-08T04:15:10;24.38;;;20.38;;
40284;SDS011;25997;50.214;19.354;2024-03-08T04:18:12;26.35;;;20.75;;
40284;SDS011;25997;50.214;19.354;2024-03-08T04:21:15;28.85;;;21.85;;
40284;SDS011;25997;50.214;19.354;2024-03-08T04:24:18;31.25;;;23.50;;
40284;SDS011;25997;50.214;19.354;2024-03-08T04:27:21;38.85;;;27.02;;
40284;SDS011;25997;50.214;19.354;2024-03-08T04:30:23;33.95;;;25.02;;
40284;SDS011;25997;50.214;19.354;2024-03-08T04:33:26;26.60;;;23.02;;
40284;SDS011;25997;50.214;19.354;2024-03-08T04:36:28;28.13;;;22.98;;
40284;SDS011;25997;50.214;19.354;2024-03-08T04:39:32;28.35;;;22.88;;
40284;SDS011;25997;50.214;19.354;2024-03-08T04:42:34;32.60;;;23.67;;
40284;SDS011;25997;50.214;19.354;2024-03-08T04:45:38;23.90;;;20.45;;
40284;SDS011;25997;50.214;19.354;2024-03-08T04:48:43;23.65;;;18.73;;
40284;SDS011;25997;50.214;19.354;2024-03-08T04:51:45;20.63;;;16.75;;
40284;SDS011;25997;50.214;19.354;2024-03-08T04:54:49;24.20;;;20.35;;
40284;SDS011;25997;50.214;19.354;2024-03-08T04:57:51;31.27;;;24.88;;
40284;SDS011;25997;50.214;19.354;2024-03-08T05:00:54;24.10;;;19.48;;
40284;SDS011;25997;50.214;19.354;2024-03-08T05:03:56;21.90;;;18.10;;
40284;SDS011;25997;50.214;19.354;2024-03-08T05:06:58;19.00;;;15.02;;
40284;SDS011;25997;50.214;19.354;2024-03-08T05:10:03;17.95;;;14.98;;
40284;SDS011;25997;50.214;19.354;2024-03-08T05:13:08;19.10;;;15.23;;
40284;SDS011;25997;50.214;19.354;2024-03-08T05:16:10;19.15;;;15.88;;
40284;SDS011;25997;50.214;19.354;2024-03-08T05:19:13;19.52;;;15.18;;
40284;SDS011;25997;50.214;19.354;2024-03-08T05:22:17;17.02;;;14.57;;
40284;SDS011;25997;50.214;19.354;2024-03-08T05:25:22;17.30;;;15.20;;
40284;SDS011;25997;50.214;19.354;2024-03-08T05:28:24;17.25;;;15.00;;
40284;SDS011;25997;50.214;19.354;2024-03-08T05:31:27;19.83;;;15.05;;
40284;SDS011;25997;50.214;19.354;2024-03-08T05:34:29;16.77;;;14.48;;
40284;SDS011;25997;50.214;19.354;2024-03-08T05:37:32;16.35;;;14.27;;
40284;SDS011;25997;50.214;19.354;2024-03-08T05:40:35;19.50;;;16.38;;
40284;SDS011;25997;50.214;19.354;2024-03-08T05:43:37;23.05;;;16.20;;
40284;SDS011;25997;50.214;19.354;2024-03-08T05:46:40;18.80;;;15.07;;
40284;SDS011;25997;50.214;19.354;2024-03-08T05:49:42;17.52;;;14.57;;
40284;SDS011;25997;50.214;19.354;2024-03-08T05:52:45;20.92;;;15.98;;
40284;SDS011;25997;50.214;19.354;2024-03-08T05:55:52;18.40;;;15.60;;
40284;SDS011;25997;50.214;19.354;2024-03-08T05:58:54;17.40;;;15.60;;
40284;SDS011;25997;50.214;19.354;2024-03-08T06:01:57;19.45;;;15.43;;
40284;SDS011;25997;50.214;19.354;2024-03-08T06:04:59;17.38;;;14.32;;
40284;SDS011;25997;50.214;19.354;2024-03-08T06:08:02;21.02;;;15.73;;
40284;SDS011;25997;50.214;19.354;2024-03-08T06:11:07;18.10;;;16.17;;
40284;SDS011;25997;50.214;19.354;2024-03-08T06:14:09;21.90;;;16.42;;
40284;SDS011;25997;50.214;19.354;2024-03-08T06:17:11;18.45;;;15.90;;
40284;SDS011;25997;50.214;19.354;2024-03-08T06:20:14;22.27;;;16.67;;
40284;SDS011;25997;50.214;19.354;2024-03-08T06:23:16;17.88;;;15.88;;
40284;SDS011;25997;50.214;19.354;2024-03-08T06:26:20;17.90;;;16.05;;
40284;SDS011;25997;50.214;19.354;2024-03-08T06:29:22;18.95;;;16.77;;
40284;SDS011;25997;50.214;19.354;2024-03-08T06:32:24;19.50;;;15.80;;
40284;SDS011;25997;50.214;19.354;2024-03-08T06:35:27;19.73;;;16.27;;
40284;SDS011;25997;50.214;19.354;2024-03-08T06:38:32;19.92;;;16.83;;
40284;SDS011;25997;50.214;19.354;2024-03-08T06:41:36;20.83;;;16.70;;
40284;SDS011;25997;50.214;19.354;2024-03-08T06:44:39;22.63;;;17.65;;
40284;SDS011;25997;50.214;19.354;2024-03-08T06:50:51;19.60;;;15.98;;
40284;SDS011;25997;50.214;19.354;2024-03-08T06:53:53;19.55;;;17.48;;
40284;SDS011;25997;50.214;19.354;2024-03-08T06:56:57;22.63;;;16.88;;
40284;SDS011;25997;50.214;19.354;2024-03-08T07:00:00;20.65;;;16.35;;
40284;SDS011;25997;50.214;19.354;2024-03-08T07:03:03;21.00;;;17.30;;
40284;SDS011;25997;50.214;19.354;2024-03-08T07:06:12;21.08;;;17.10;;
40284;SDS011;25997;50.214;19.354;2024-03-08T07:09:15;20.13;;;16.85;;
40284;SDS011;25997;50.214;19.354;2024-03-08T07:12:19;19.77;;;17.45;;
40284;SDS011;25997;50.214;19.354;2024-03-08T07:15:23;20.52;;;17.38;;
40284;SDS011;25997;50.214;19.354;2024-03-08T07:18:26;22.05;;;17.73;;
40284;SDS011;25997;50.214;19.354;2024-03-08T07:21:30;19.75;;;16.35;;
40284;SDS011;25997;50.214;19.354;2024-03-08T07:24:33;22.83;;;17.35;;
40284;SDS011;25997;50.214;19.354;2024-03-08T07:27:52;21.98;;;18.20;;
40284;SDS011;25997;50.214;19.354;2024-03-08T07:30:55;23.13;;;19.08;;
40284;SDS011;25997;50.214;19.354;2024-03-08T07:34:10;20.27;;;18.02;;
40284;SDS011;25997;50.214;19.354;2024-03-08T07:37:13;23.05;;;16.70;;
40284;SDS011;25997;50.214;19.354;2024-03-08T07:40:15;23.65;;;17.05;;
40284;SDS011;25997;50.214;19.354;2024-03-08T07:43:19;20.45;;;16.73;;
40284;SDS011;25997;50.214;19.354;2024-03-08T07:46:22;22.58;;;18.40;;
40284;SDS011;25997;50.214;19.354;2024-03-08T07:49:25;22.73;;;18.10;;
40284;SDS011;25997;50.214;19.354;2024-03-08T07:52:27;23.65;;;20.85;;
40284;SDS011;25997;50.214;19.354;2024-03-08T07:55:29;23.75;;;19.20;;
40284;SDS011;25997;50.214;19.354;2024-03-08T07:58:33;22.55;;;19.08;;
40284;SDS011;25997;50.214;19.354;2024-03-08T08:01:36;27.77;;;19.38;;
40284;SDS011;25997;50.214;19.354;2024-03-08T08:04:38;24.08;;;18.85;;
40284;SDS011;25997;50.214;19.354;2024-03-08T08:07:43;25.98;;;20.38;;
40284;SDS011;25997;50.214;19.354;2024-03-08T08:10:46;25.08;;;19.92;;
40284;SDS011;25997;50.214;19.354;2024-03-08T08:13:51;23.75;;;19.90;;
40284;SDS011;25997;50.214;19.354;2024-03-08T08:16:55;23.77;;;20.00;;
40284;SDS011;25997;50.214;19.354;2024-03-08T08:19:57;25.02;;;18.38;;
40284;SDS011;25997;50.214;19.354;2024-03-08T08:23:00;22.60;;;18.42;;
40284;SDS011;25997;50.214;19.354;2024-03-08T08:26:03;23.23;;;20.45;;
40284;SDS011;25997;50.214;19.354;2024-03-08T08:29:07;22.98;;;20.55;;
40284;SDS011;25997;50.214;19.354;2024-03-08T08:32:09;23.58;;;18.88;;
40284;SDS011;25997;50.214;19.354;2024-03-08T08:35:11;22.23;;;19.73;;
40284;SDS011;25997;50.214;19.354;2024-03-08T08:38:14;20.05;;;17.88;;
40284;SDS011;25997;50.214;19.354;2024-03-08T08:41:16;22.30;;;18.38;;
40284;SDS011;25997;50.214;19.354;2024-03-08T08:44:20;23.55;;;18.95;;
40284;SDS011;25997;50.214;19.354;2024-03-08T08:47:23;23.45;;;18.63;;
40284;SDS011;25997;50.214;19.354;2024-03-08T08:50:25;24.83;;;19.27;;
40284;SDS011;25997;50.214;19.354;2024-03-08T08:53:28;23.45;;;18.30;;
40284;SDS011;25997;50.214;19.354;2024-03-08T08:56:31;24.17;;;20.02;;
40284;SDS011;25997;50.214;19.354;2024-03-08T08:59:36;25.50;;;19.27;;
40284;SDS011;25997;50.214;19.354;2024-03-08T09:02:40;22.27;;;19.90;;
40284;SDS011;25997;50.214;19.354;2024-03-08T09:05:42;21.88;;;19.40;;
40284;SDS011;25997;50.214;19.354;2024-03-08T09:08:45;22.20;;;18.67;;
40284;SDS011;25997;50.214;19.354;2024-03-08T09:11:47;21.58;;;19.20;;
40284;SDS011;25997;50.214;19.354;2024-03-08T09:14:51;23.30;;;19.67;;
40284;SDS011;25997;50.214;19.354;2024-03-08T09:17:54;21.23;;;17.85;;
40284;SDS011;25997;50.214;19.354;2024-03-08T09:20:56;23.15;;;19.40;;
40284;SDS011;25997;50.214;19.354;2024-03-08T09:23:58;24.02;;;19.40;;
40284;SDS011;25997;50.214;19.354;2024-03-08T09:27:01;20.80;;;18.60;;
40284;SDS011;25997;50.214;19.354;2024-03-08T09:30:05;21.95;;;19.65;;
40284;SDS011;25997;50.214;19.354;2024-03-08T09:33:08;26.92;;;20.23;;
40284;SDS011;25997;50.214;19.354;2024-03-08T09:36:10;23.63;;;20.05;;
40284;SDS011;25997;50.214;19.354;2024-03-08T09:39:13;23.73;;;19.00;;
40284;SDS011;25997;50.214;19.354;2024-03-08T09:42:17;23.08;;;19.00;;
40284;SDS011;25997;50.214;19.354;2024-03-08T09:45:21;22.35;;;19.15;;
40284;SDS011;25997;50.214;19.354;2024-03-08T09:48:24;26.38;;;19.83;;
40284;SDS011;25997;50.214;19.354;2024-03-08T09:51:28;24.85;;;19.60;;
40284;SDS011;25997;50.214;19.354;2024-03-08T09:54:31;20.83;;;18.65;;
40284;SDS011;25997;50.214;19.354;2024-03-08T09:57:34;24.13;;;21.23;;
40284;SDS011;25997;50.214;19.354;2024-03-08T10:00:40;25.35;;;21.77;;
40284;SDS011;25997;50.214;19.354;2024-03-08T10:03:42;23.55;;;18.70;;
40284;SDS011;25997;50.214;19.354;2024-03-08T10:06:45;21.35;;;19.15;;
40284;SDS011;25997;50.214;19.354;2024-03-08T10:09:48;24.80;;;19.98;;
40284;SDS011;25997;50.214;19.354;2024-03-08T10:12:54;25.58;;;21.77;;
40284;SDS011;25997;50.214;19.354;2024-03-08T10:15:59;26.23;;;20.20;;
40284;SDS011;25997;50.214;19.354;2024-03-08T10:19:02;22.73;;;20.30;;
40284;SDS011;25997;50.214;19.354;2024-03-08T10:22:05;26.80;;;20.15;;
40284;SDS011;25997;50.214;19.354;2024-03-08T10:25:16;24.58;;;20.85;;
40284;SDS011;25997;50.214;19.354;2024-03-08T10:28:18;21.40;;;19.20;;
40284;SDS011;25997;50.214;19.354;2024-03-08T10:31:21;22.85;;;20.45;;
40284;SDS011;25997;50.214;19.354;2024-03-08T10:34:24;27.27;;;24.38;;
40284;SDS011;25997;50.214;19.354;2024-03-08T10:37:27;25.27;;;22.08;;
40284;SDS011;25997;50.214;19.354;2024-03-08T10:40:29;27.42;;;23.90;;
40284;SDS011;25997;50.214;19.354;2024-03-08T10:43:36;28.92;;;25.83;;
40284;SDS011;25997;50.214;19.354;2024-03-08T10:46:53;34.45;;;30.65;;
40284;SDS011;25997;50.214;19.354;2024-03-08T10:50:07;32.03;;;26.42;;
40284;SDS011;25997;50.214;19.354;2024-03-08T10:53:13;32.13;;;28.50;;
40284;SDS011;25997;50.214;19.354;2024-03-08T10:56:16;34.90;;;29.98;;
40284;SDS011;25997;50.214;19.354;2024-03-08T10:59:18;32.28;;;28.63;;
40284;SDS011;25997;50.214;19.354;2024-03-08T11:02:23;32.60;;;29.10;;
40284;SDS011;25997;50.214;19.354;2024-03-08T11:05:31;30.90;;;27.42;;
40284;SDS011;25997;50.214;19.354;2024-03-08T11:08:38;35.05;;;30.95;;
40284;SDS011;25997;50.214;19.354;2024-03-08T11:11:41;29.90;;;26.83;;
40284;SDS011;25997;50.214;19.354;2024-03-08T11:14:43;31.30;;;27.90;;
40284;SDS011;25997;50.214;19.354;2024-03-08T11:17:50;30.48;;;27.40;;
40284;SDS011;25997;50.214;19.354;2024-03-08T11:20:56;33.50;;;29.33;;
40284;SDS011;25997;50.214;19.354;2024-03-08T11:23:59;30.52;;;27.33;;
40284;SDS011;25997;50.214;19.354;2024-03-08T11:27:03;39.00;;;32.53;;
40284;SDS011;25997;50.214;19.354;2024-03-08T11:30:05;35.47;;;30.88;;
40284;SDS011;25997;50.214;19.354;2024-03-08T11:33:13;38.38;;;30.63;;
40284;SDS011;25997;50.214;19.354;2024-03-08T11:36:20;35.88;;;28.63;;
40284;SDS011;25997;50.214;19.354;2024-03-08T11:39:22;30.55;;;26.70;;
40284;SDS011;25997;50.214;19.354;2024-03-08T11:42:25;37.28;;;28.38;;
40284;SDS011;25997;50.214;19.354;2024-03-08T11:45:27;36.80;;;32.47;;
40284;SDS011;25997;50.214;19.354;2024-03-08T11:48:31;34.85;;;31.10;;
40284;SDS011;25997;50.214;19.354;2024-03-08T11:51:34;34.83;;;31.15;;
40284;SDS011;25997;50.214;19.354;2024-03-08T11:54:36;34.53;;;29.85;;
40284;SDS011;25997;50.214;19.354;2024-03-08T11:57:39;34.88;;;29.52;;
40284;SDS011;25997;50.214;19.354;2024-03-08T12:00:42;32.10;;;28.95;;
40284;SDS011;25997;50.214;19.354;2024-03-08T12:03:51;33.75;;;30.08;;
40284;SDS011;25997;50.214;19.354;2024-03-08T12:06:54;37.10;;;33.05;;
40284;SDS011;25997;50.214;19.354;2024-03-08T12:10:16;33.17;;;29.58;;
40284;SDS011;25997;50.214;19.354;2024-03-08T12:13:19;28.50;;;25.33;;
40284;SDS011;25997;50.214;19.354;2024-03-08T12:16:23;30.88;;;25.90;;
40284;SDS011;25997;50.214;19.354;2024-03-08T12:19:27;27.90;;;25.15;;
40284;SDS011;25997;50.214;19.354;2024-03-08T12:22:30;28.55;;;25.45;;
40284;SDS011;25997;50.214;19.354;2024-03-08T12:25:32;28.58;;;25.35;;
40284;SDS011;25997;50.214;19.354;2024-03-08T12:28:35;31.10;;;27.17;;
40284;SDS011;25997;50.214;19.354;2024-03-08T12:31:38;28.35;;;25.13;;
40284;SDS011;25997;50.214;19.354;2024-03-08T12:34:44;30.15;;;25.80;;
40284;SDS011;25997;50.214;19.354;2024-03-08T12:37:54;29.73;;;25.70;;
40284;SDS011;25997;50.214;19.354;2024-03-08T12:40:58;50.15;;;36.90;;
40284;SDS011;25997;50.214;19.354;2024-03-08T12:44:01;35.70;;;28.48;;
40284;SDS011;25997;50.214;19.354;2024-03-08T12:47:08;27.75;;;24.77;;
40284;SDS011;25997;50.214;19.354;2024-03-08T12:50:11;27.48;;;22.85;;
40284;SDS011;25997;50.214;19.354;2024-03-08T12:53:14;27.25;;;24.27;;
40284;SDS011;25997;50.214;19.354;2024-03-08T12:56:30;31.92;;;23.90;;
40284;SDS011;25997;50.214;19.354;2024-03-08T12:59:34;25.20;;;22.23;;
40284;SDS011;25997;50.214;19.354;2024-03-08T13:02:36;25.52;;;22.98;;
40284;SDS011;25997;50.214;19.354;2024-03-08T13:05:40;26.95;;;22.92;;
40284;SDS011;25997;50.214;19.354;2024-03-08T13:08:43;26.63;;;23.98;;
40284;SDS011;25997;50.214;19.354;2024-03-08T13:11:45;27.55;;;24.75;;
40284;SDS011;25997;50.214;19.354;2024-03-08T13:14:47;27.48;;;23.60;;
40284;SDS011;25997;50.214;19.354;2024-03-08T13:17:50;29.08;;;26.08;;
40284;SDS011;25997;50.214;19.354;2024-03-08T13:20:53;27.92;;;25.02;;
40284;SDS011;25997;50.214;19.354;2024-03-08T13:23:57;28.95;;;25.02;;
40284;SDS011;25997;50.214;19.354;2024-03-08T13:27:00;27.15;;;23.92;;
40284;SDS011;25997;50.214;19.354;2024-03-08T13:30:17;25.05;;;22.35;;
40284;SDS011;25997;50.214;19.354;2024-03-08T13:33:24;26.38;;;23.60;;
40284;SDS011;25997;50.214;19.354;2024-03-08T13:36:29;24.70;;;22.35;;
40284;SDS011;25997;50.214;19.354;2024-03-08T13:39:39;25.02;;;22.42;;
40284;SDS011;25997;50.214;19.354;2024-03-08T13:42:45;26.42;;;23.80;;
40284;SDS011;25997;50.214;19.354;2024-03-08T13:45:47;27.45;;;24.80;;
40284;SDS011;25997;50.214;19.354;2024-03-08T13:48:51;32.10;;;28.77;;
40284;SDS011;25997;50.214;19.354;2024-03-08T13:52:04;27.23;;;24.52;;
40284;SDS011;25997;50.214;19.354;2024-03-08T13:55:09;25.42;;;22.83;;
40284;SDS011;25997;50.214;19.354;2024-03-08T13:58:14;27.42;;;24.65;;
40284;SDS011;25997;50.214;19.354;2024-03-08T14:01:17;27.35;;;24.77;;
40284;SDS011;25997;50.214;19.354;2024-03-08T14:04:19;26.13;;;23.45;;
40284;SDS011;25997;50.214;19.354;2024-03-08T14:07:23;24.00;;;21.58;;
40284;SDS011;25997;50.214;19.354;2024-03-08T14:10:25;25.52;;;22.90;;
40284;SDS011;25997;50.214;19.354;2024-03-08T14:13:27;26.55;;;23.88;;
40284;SDS011;25997;50.214;19.354;2024-03-08T14:16:29;25.50;;;23.10;;
40284;SDS011;25997;50.214;19.354;2024-03-08T14:19:32;26.60;;;23.13;;
40284;SDS011;25997;50.214;19.354;2024-03-08T14:22:35;24.50;;;22.23;;
40284;SDS011;25997;50.214;19.354;2024-03-08T14:25:38;25.98;;;23.42;;
40284;SDS011;25997;50.214;19.354;2024-03-08T14:28:40;26.95;;;23.98;;
40284;SDS011;25997;50.214;19.354;2024-03-08T14:31:42;28.70;;;25.80;;
40284;SDS011;25997;50.214;19.354;2024-03-08T14:34:44;27.23;;;24.55;;
40284;SDS011;25997;50.214;19.354;2024-03-08T14:37:49;26.40;;;23.77;;
40284;SDS011;25997;50.214;19.354;2024-03-08T14:40:53;27.45;;;23.77;;
40284;SDS011;25997;50.214;19.354;2024-03-08T14:43:55;26.77;;;23.92;;
40284;SDS011;25997;50.214;19.354;2024-03-08T14:46:58;25.35;;;22.75;;
40284;SDS011;25997;50.214;19.354;2024-03-08T14:50:01;25.13;;;22.50;;
40284;SDS011;25997;50.214;19.354;2024-03-08T14:53:05;29.85;;;25.60;;
40284;SDS011;25997;50.214;19.354;2024-03-08T14:56:07;36.55;;;28.92;;
40284;SDS011;25997;50.214;19.354;2024-03-08T14:59:10;32.08;;;28.92;;
40284;SDS011;25997;50.214;19.354;2024-03-08T15:02:12;29.38;;;26.27;;
40284;SDS011;25997;50.214;19.354;2024-03-08T15:05:15;29.15;;;25.95;;
40284;SDS011;25997;50.214;19.354;2024-03-08T15:08:23;29.08;;;26.00;;
40284;SDS011;25997;50.214;19.354;2024-03-08T15:11:26;30.55;;;27.73;;
40284;SDS011;25997;50.214;19.354;2024-03-08T15:14:28;27.98;;;24.98;;
40284;SDS011;25997;50.214;19.354;2024-03-08T15:17:30;29.77;;;24.83;;
40284;SDS011;25997;50.214;19.354;2024-03-08T15:20:33;27.80;;;24.80;;
40284;SDS011;25997;50.214;19.354;2024-03-08T15:23:37;27.92;;;25.20;;
40284;SDS011;25997;50.214;19.354;2024-03-08T15:26:44;26.38;;;23.67;;
40284;SDS011;25997;50.214;19.354;2024-03-08T15:29:46;28.50;;;25.42;;
40284;SDS011;25997;50.214;19.354;2024-03-08T15:32:52;39.08;;;29.85;;
40284;SDS011;25997;50.214;19.354;2024-03-08T15:35:57;33.78;;;28.17;;
40284;SDS011;25997;50.214;19.354;2024-03-08T15:39:05;38.45;;;30.50;;
40284;SDS011;25997;50.214;19.354;2024-03-08T15:42:10;36.13;;;29.33;;
40284;SDS011;25997;50.214;19.354;2024-03-08T15:45:12;34.20;;;29.55;;
40284;SDS011;25997;50.214;19.354;2024-03-08T15:48:15;35.08;;;30.10;;
40284;SDS011;25997;50.214;19.354;2024-03-08T15:51:17;31.10;;;26.98;;
40284;SDS011;25997;50.214;19.354;2024-03-08T15:54:21;31.83;;;26.70;;
40284;SDS011;25997;50.214;19.354;2024-03-08T15:57:23;28.17;;;25.20;;
40284;SDS011;25997;50.214;19.354;2024-03-08T16:00:26;33.10;;;24.65;;
40284;SDS011;25997;50.214;19.354;2024-03-08T16:03:36;29.92;;;24.33;;
40284;SDS011;25997;50.214;19.354;2024-03-08T16:06:38;31.55;;;26.38;;
40284;SDS011;25997;50.214;19.354;2024-03-08T16:09:42;31.63;;;25.67;;
40284;SDS011;25997;50.214;19.354;2024-03-08T16:12:45;30.73;;;24.45;;
40284;SDS011;25997;50.214;19.354;2024-03-08T16:15:47;26.90;;;23.13;;
40284;SDS011;25997;50.214;19.354;2024-03-08T16:18:49;28.55;;;23.45;;
40284;SDS011;25997;50.214;19.354;2024-03-08T16:21:52;32.88;;;23.35;;
40284;SDS011;25997;50.214;19.354;2024-03-08T16:24:55;26.52;;;22.55;;
40284;SDS011;25997;50.214;19.354;2024-03-08T16:27:58;33.13;;;24.70;;
40284;SDS011;25997;50.214;19.354;2024-03-08T16:31:00;34.42;;;25.38;;
40284;SDS011;25997;50.214;19.354;2024-03-08T16:34:05;31.10;;;25.23;;
40284;SDS011;25997;50.214;19.354;2024-03-08T16:37:09;29.40;;;23.98;;
40284;SDS011;25997;50.214;19.354;2024-03-08T16:40:12;31.52;;;24.55;;
40284;SDS011;25997;50.214;19.354;2024-03-08T16:43:17;31.52;;;23.70;;
40284;SDS011;25997;50.214;19.354;2024-03-08T16:46:20;28.67;;;22.15;;
40284;SDS011;25997;50.214;19.354;2024-03-08T16:49:22;27.80;;;22.98;;
40284;SDS011;25997;50.214;19.354;2024-03-08T16:52:24;27.80;;;23.00;;
40284;SDS011;25997;50.214;19.354;2024-03-08T16:55:28;28.15;;;22.00;;
40284;SDS011;25997;50.214;19.354;2024-03-08T16:58:30;32.72;;;23.38;;
40284;SDS011;25997;50.214;19.354;2024-03-08T17:01:34;28.95;;;23.40;;
40284;SDS011;25997;50.214;19.354;2024-03-08T17:04:38;33.40;;;22.92;;
40284;SDS011;25997;50.214;19.354;2024-03-08T17:07:41;38.20;;;31.02;;
40284;SDS011;25997;50.214;19.354;2024-03-08T17:10:44;35.50;;;25.45;;
40284;SDS011;25997;50.214;19.354;2024-03-08T17:13:47;32.15;;;24.33;;
40284;SDS011;25997;50.214;19.354;2024-03-08T17:16:49;29.27;;;23.35;;
40284;SDS011;25997;50.214;19.354;2024-03-08T17:19:51;38.58;;;31.88;;
40284;SDS011;25997;50.214;19.354;2024-03-08T17:22:55;58.45;;;52.17;;
40284;SDS011;25997;50.214;19.354;2024-03-08T17:25:59;76.15;;;68.20;;
40284;SDS011;25997;50.214;19.354;2024-03-08T17:29:03;56.33;;;50.15;;
40284;SDS011;25997;50.214;19.354;2024-03-08T17:32:05;38.60;;;34.45;;
40284;SDS011;25997;50.214;19.354;2024-03-08T17:35:09;32.58;;;28.17;;
40284;SDS011;25997;50.214;19.354;2024-03-08T17:38:12;40.50;;;35.88;;
40284;SDS011;25997;50.214;19.354;2024-03-08T17:41:20;34.22;;;30.52;;